Time;durP1;ratioP1;P1;durP2;ratioP2;P2;SDS_P1;SDS_P2;PMS_P1;PMS_P2;Temp;Humidity;BMP_temperature;BMP_pressure;BME280_temperature;BME280_humidity;BME280_pressure;Samples;Min_cycle;Max_cycle;Signal;HPM_P1;HPM_P2
2023/04/15 00:00:37;;;;;;;10.32;6.05;;;9.50;99.90;;;;;;5127941;27;20063;-67
2023/04/15 00:03:04;;;;;;;7.45;5.32;;;9.50;99.90;;;;;;5124746;27;20054;-68
2023/04/15 00:05:30;;;;;;;8.77;5.25;;;9.40;99.90;;;;;;5128295;27;20027;-68
2023/04/15 00:07:57;;;;;;;10.10;5.07;;;9.30;99.90;;;;;;5121345;27;20034;-68
2023/04/15 00:10:23;;;;;;;10.75;5.35;;;9.20;99.90;;;;;;5129498;27;20022;-67
2023/04/15 00:12:49;;;;;;;9.02;4.50;;;9.30;99.90;;;;;;5123745;27;20533;-68
2023/04/15 00:15:16;;;;;;;6.57;3.80;;;9.30;99.90;;;;;;5131561;27;20413;-68
2023/04/15 00:17:42;;;;;;;8.63;4.05;;;9.20;99.90;;;;;;5127777;27;20069;-67
2023/04/15 00:20:08;;;;;;;9.18;4.38;;;9.20;99.90;;;;;;5122715;27;20391;-68
2023/04/15 00:22:33;;;;;;;9.02;4.50;;;9.10;99.90;;;;;;5120863;27;20024;-67
2023/04/15 00:24:59;;;;;;;8.48;4.82;;;9.10;99.90;;;;;;5120811;27;20027;-71
2023/04/15 00:27:25;;;;;;;7.72;4.72;;;9.10;99.90;;;;;;5131829;27;20545;-68
2023/04/15 00:29:51;;;;;;;9.80;4.82;;;9.00;99.90;;;;;;5126025;27;20038;-67
2023/04/15 00:32:17;;;;;;;10.15;5.65;;;9.10;99.90;;;;;;5127914;27;20054;-67
2023/04/15 00:34:42;;;;;;;10.32;5.85;;;9.10;99.90;;;;;;5123044;27;20047;-67
2023/04/15 00:37:09;;;;;;;12.25;4.63;;;9.10;99.90;;;;;;5125065;27;20054;-67
2023/04/15 00:39:35;;;;;;;8.25;5.07;;;9.10;99.90;;;;;;5118978;27;20024;-67
2023/04/15 00:42:02;;;;;;;8.20;5.05;;;9.00;99.90;;;;;;5124856;27;20023;-68
2023/04/15 00:44:28;;;;;;;8.43;4.43;;;9.00;99.90;;;;;;5124423;27;20479;-67
2023/04/15 00:46:54;;;;;;;8.88;4.88;;;9.00;99.90;;;;;;5127444;27;20096;-67
2023/04/15 00:49:20;;;;;;;11.52;4.22;;;9.00;99.90;;;;;;5125113;27;20117;-67
2023/04/15 00:51:46;;;;;;;11.45;5.05;;;9.00;99.90;;;;;;5122110;27;20027;-68
2023/04/15 00:54:11;;;;;;;11.07;4.93;;;9.00;99.90;;;;;;5124352;27;20077;-69
2023/04/15 00:56:38;;;;;;;9.57;6.03;;;9.10;99.90;;;;;;5118173;27;20506;-67
2023/04/15 00:59:05;;;;;;;9.65;5.75;;;9.10;99.90;;;;;;5118973;27;20035;-68
2023/04/15 01:01:34;;;;;;;10.75;5.80;;;9.00;99.90;;;;;;5129484;27;20510;-68
2023/04/15 01:04:00;;;;;;;9.57;5.25;;;9.00;99.90;;;;;;5123586;27;20027;-68
2023/04/15 01:06:26;;;;;;;7.22;4.50;;;9.00;99.90;;;;;;5124951;27;20059;-69
2023/04/15 01:08:56;;;;;;;12.43;5.72;;;9.00;99.90;;;;;;5125832;27;20522;-69
2023/04/15 01:11:23;;;;;;;10.25;4.57;;;9.10;99.90;;;;;;5116162;28;20048;-68
2023/04/15 01:13:50;;;;;;;9.40;5.25;;;9.00;99.90;;;;;;5130100;27;20101;-69
2023/04/15 01:16:17;;;;;;;10.75;4.97;;;9.00;99.90;;;;;;5128702;27;20642;-68
2023/04/15 01:18:42;;;;;;;11.32;5.40;;;9.00;99.90;;;;;;5128415;27;20550;-68
2023/04/15 01:21:09;;;;;;;13.93;5.75;;;8.90;99.90;;;;;;5121201;27;20028;-69
2023/04/15 01:23:39;;;;;;;10.48;5.90;;;9.00;99.90;;;;;;5132704;27;20080;-68
2023/04/15 01:26:09;;;;;;;8.68;5.45;;;9.00;99.90;;;;;;5130393;27;20077;-67
2023/04/15 01:28:36;;;;;;;8.57;6.30;;;9.10;99.90;;;;;;5125649;27;20421;-68
2023/04/15 01:31:10;;;;;;;11.32;5.63;;;9.10;99.90;;;;;;5132969;27;20106;-67
2023/04/15 01:33:36;;;;;;;10.38;5.43;;;9.00;99.90;;;;;;5122900;27;20020;-69
2023/04/15 01:36:03;;;;;;;11.32;6.05;;;9.10;99.90;;;;;;5128239;27;20076;-68
2023/04/15 01:38:30;;;;;;;6.65;5.32;;;9.20;99.90;;;;;;5125461;27;20416;-68
2023/04/15 01:40:57;;;;;;;7.60;5.97;;;9.10;99.90;;;;;;5128790;27;20019;-68
2023/04/15 01:43:22;;;;;;;9.40;6.18;;;9.10;99.90;;;;;;5126937;27;20084;-68
2023/04/15 01:45:48;;;;;;;13.25;6.18;;;9.10;99.90;;;;;;5127216;27;20665;-68
2023/04/15 01:48:14;;;;;;;10.10;5.97;;;9.10;99.90;;;;;;5134979;27;20416;-68
2023/04/15 01:50:40;;;;;;;11.50;6.60;;;9.20;99.90;;;;;;5130603;27;20019;-68
2023/04/15 01:53:05;;;;;;;11.65;6.28;;;9.20;99.90;;;;;;5130894;27;20100;-68
2023/04/15 01:55:31;;;;;;;14.65;6.50;;;9.20;99.90;;;;;;5129060;27;20096;-69
2023/04/15 01:57:57;;;;;;;11.45;6.00;;;9.20;99.90;;;;;;5130346;27;20103;-68
2023/04/15 02:00:22;;;;;;;6.82;4.88;;;9.10;99.90;;;;;;5126946;27;20033;-69
2023/04/15 02:02:48;;;;;;;13.00;6.40;;;9.20;99.90;;;;;;5129395;27;20097;-68
2023/04/15 02:05:15;;;;;;;12.77;6.10;;;9.20;99.90;;;;;;5126650;27;20026;-67
2023/04/15 02:07:42;;;;;;;9.43;6.10;;;9.20;99.90;;;;;;5128627;27;20062;-68
2023/04/15 02:10:09;;;;;;;14.20;6.53;;;9.20;99.90;;;;;;5122918;27;20408;-68
2023/04/15 02:12:35;;;;;;;12.75;6.75;;;9.20;99.90;;;;;;5133382;27;20035;-67
2023/04/15 02:15:00;;;;;;;14.15;6.85;;;9.20;99.90;;;;;;5130115;27;20025;-68
2023/04/15 02:17:26;;;;;;;7.60;5.68;;;9.20;99.90;;;;;;5132364;27;20641;-68
2023/04/15 02:19:52;;;;;;;13.75;6.50;;;9.20;99.90;;;;;;5125013;27;20031;-70
2023/04/15 02:22:18;;;;;;;9.32;4.95;;;9.20;99.90;;;;;;5124729;27;20076;-68
2023/04/15 02:24:45;;;;;;;10.15;4.95;;;9.10;99.90;;;;;;5126635;27;20043;-68
2023/04/15 02:27:15;;;;;;;9.45;5.72;;;9.10;99.90;;;;;;5128370;27;20401;-68
2023/04/15 02:29:42;;;;;;;9.70;6.00;;;9.10;99.90;;;;;;5124201;27;20102;-72
2023/04/15 02:32:07;;;;;;;9.13;5.70;;;9.10;99.90;;;;;;5126128;27;20121;-68
2023/04/15 02:34:33;;;;;;;8.32;5.75;;;9.00;99.90;;;;;;5128777;27;20043;-69
2023/04/15 02:36:58;;;;;;;8.63;5.40;;;9.00;99.90;;;;;;5120690;27;20036;-68
2023/04/15 02:39:24;;;;;;;10.13;6.80;;;9.10;99.90;;;;;;5130238;27;20132;-69
2023/04/15 02:41:51;;;;;;;10.98;6.00;;;9.10;99.90;;;;;;5126016;27;20031;-70
2023/04/15 02:44:20;;;;;;;11.73;6.05;;;9.10;99.90;;;;;;5122393;27;20026;-68
2023/04/15 02:46:51;;;;;;;14.07;5.60;;;9.00;99.90;;;;;;5136227;27;20121;-69
2023/04/15 02:49:17;;;;;;;10.73;5.65;;;9.10;99.90;;;;;;5124102;27;20015;-68
2023/04/15 02:51:46;;;;;;;8.98;6.72;;;9.00;99.90;;;;;;5125484;27;20479;-68
2023/04/15 02:54:12;;;;;;;11.80;6.97;;;9.00;99.90;;;;;;5128963;27;20033;-68
2023/04/15 02:56:37;;;;;;;10.13;5.85;;;9.00;99.90;;;;;;5125180;27;20019;-68
2023/04/15 02:59:03;;;;;;;10.85;6.28;;;8.90;99.90;;;;;;5129103;27;20015;-68
2023/04/15 03:01:29;;;;;;;11.95;6.95;;;8.90;99.90;;;;;;5118849;27;20023;-69
2023/04/15 03:03:55;;;;;;;15.43;7.38;;;8.90;99.90;;;;;;5128579;27;20042;-68
2023/04/15 03:06:20;;;;;;;10.60;6.78;;;8.90;99.90;;;;;;5122088;27;20039;-69
2023/04/15 03:08:46;;;;;;;11.85;7.00;;;8.90;99.90;;;;;;5125523;27;20023;-67
2023/04/15 03:11:13;;;;;;;10.02;6.28;;;8.90;99.90;;;;;;5127969;27;20034;-68
2023/04/15 03:13:40;;;;;;;8.10;5.88;;;8.80;99.90;;;;;;5123996;27;20051;-68
2023/04/15 03:16:06;;;;;;;10.23;6.70;;;8.80;99.90;;;;;;5129156;27;20038;-69
2023/04/15 03:18:32;;;;;;;12.13;6.60;;;8.70;99.90;;;;;;5124297;27;20054;-69
2023/04/15 03:20:58;;;;;;;15.38;6.63;;;8.70;99.90;;;;;;5127915;27;20061;-68
2023/04/15 03:23:24;;;;;;;12.13;6.60;;;8.70;99.90;;;;;;5122372;27;20026;-68
2023/04/15 03:25:50;;;;;;;12.23;6.80;;;8.60;99.90;;;;;;5125290;27;20016;-68
2023/04/15 03:28:15;;;;;;;18.63;8.57;;;8.60;99.90;;;;;;5126469;27;20031;-68
2023/04/15 03:30:41;;;;;;;11.50;7.45;;;8.60;99.90;;;;;;5130761;27;20461;-69
2023/04/15 03:33:07;;;;;;;9.85;6.45;;;8.50;99.90;;;;;;5123514;27;20035;-69
2023/04/15 03:35:33;;;;;;;12.93;7.35;;;8.40;99.90;;;;;;5125295;27;20016;-67
2023/04/15 03:37:59;;;;;;;11.65;7.00;;;8.50;99.90;;;;;;5131586;27;20034;-67
2023/04/15 03:40:25;;;;;;;10.90;7.20;;;8.50;99.90;;;;;;5131623;27;20045;-68
2023/04/15 03:42:51;;;;;;;13.65;8.07;;;8.50;99.90;;;;;;5134942;27;20458;-69
2023/04/15 03:45:17;;;;;;;14.75;8.35;;;8.50;99.90;;;;;;5127955;27;20051;-67
2023/04/15 03:47:42;;;;;;;16.92;8.63;;;8.50;99.90;;;;;;5121333;27;20038;-68
2023/04/15 03:50:08;;;;;;;11.38;8.30;;;8.50;99.90;;;;;;5119749;27;20015;-67
2023/04/15 03:52:34;;;;;;;13.70;9.73;;;8.50;99.90;;;;;;5118787;27;20019;-68
2023/04/15 03:55:00;;;;;;;13.48;9.68;;;8.50;99.90;;;;;;5125886;27;20086;-68
2023/04/15 03:57:26;;;;;;;13.82;8.75;;;8.50;99.90;;;;;;5121292;27;20014;-68
2023/04/15 03:59:51;;;;;;;13.45;8.85;;;8.40;99.90;;;;;;5126492;27;20417;-68
2023/04/15 04:02:17;;;;;;;17.95;10.20;;;8.40;99.90;;;;;;5126242;27;20019;-67
2023/04/15 04:04:43;;;;;;;15.93;11.40;;;8.40;99.90;;;;;;5129238;27;20356;-68
2023/04/15 04:07:14;;;;;;;18.67;11.13;;;8.40;99.90;;;;;;5120532;27;20702;-68
2023/04/15 04:09:40;;;;;;;20.38;11.95;;;8.40;99.90;;;;;;5127772;27;20383;-68
2023/04/15 04:12:06;;;;;;;19.23;11.23;;;8.40;99.90;;;;;;5128408;27;20039;-68
2023/04/15 04:14:32;;;;;;;17.00;11.55;;;8.40;99.90;;;;;;5120662;27;20524;-67
2023/04/15 04:16:57;;;;;;;18.20;11.07;;;8.40;99.90;;;;;;5120255;27;20023;-68
2023/04/15 04:19:23;;;;;;;18.63;11.20;;;8.30;99.90;;;;;;5121300;27;20497;-67
2023/04/15 04:21:49;;;;;;;18.52;10.90;;;8.40;99.90;;;;;;5125779;27;20140;-68
2023/04/15 04:24:15;;;;;;;18.80;11.85;;;8.40;99.90;;;;;;5120264;27;20024;-67
2023/04/15 04:26:40;;;;;;;16.73;10.32;;;8.40;99.90;;;;;;5126627;27;20038;-68
2023/04/15 04:29:06;;;;;;;15.30;9.02;;;8.40;99.90;;;;;;5124228;27;20018;-68
2023/04/15 04:31:32;;;;;;;17.80;11.88;;;8.40;99.90;;;;;;5127319;27;20050;-68
2023/04/15 04:33:58;;;;;;;16.73;11.98;;;8.30;99.90;;;;;;5125140;27;20015;-68
2023/04/15 04:36:23;;;;;;;19.65;12.80;;;8.40;99.90;;;;;;5125010;27;20061;-67
2023/04/15 04:38:49;;;;;;;20.13;12.80;;;8.30;99.90;;;;;;5122652;27;20047;-68
2023/04/15 04:41:15;;;;;;;25.33;14.95;;;8.30;99.90;;;;;;5128191;27;20023;-68
2023/04/15 04:43:41;;;;;;;22.90;16.60;;;8.30;99.90;;;;;;5125246;27;20085;-68
2023/04/15 04:46:06;;;;;;;24.27;16.10;;;8.30;99.90;;;;;;5128660;27;20037;-68
2023/04/15 04:48:32;;;;;;;22.52;16.33;;;8.40;99.90;;;;;;5126775;27;20031;-67
2023/04/15 04:50:58;;;;;;;24.08;16.77;;;8.30;99.90;;;;;;5121076;27;20095;-68
2023/04/15 04:53:24;;;;;;;23.48;15.60;;;8.30;99.90;;;;;;5124961;27;20019;-68
2023/04/15 04:55:49;;;;;;;23.00;15.57;;;8.30;99.90;;;;;;5118092;27;20081;-67
2023/04/15 04:58:15;;;;;;;30.15;18.00;;;8.20;99.90;;;;;;5122321;27;20922;-68
2023/04/15 05:00:41;;;;;;;22.83;16.38;;;8.20;99.90;;;;;;5116820;27;20495;-68
2023/04/15 05:03:07;;;;;;;28.67;18.20;;;8.20;99.90;;;;;;5120418;27;20032;-68
2023/04/15 05:05:35;;;;;;;26.27;16.48;;;8.20;99.90;;;;;;5120455;27;20475;-68
2023/04/15 05:08:01;;;;;;;27.05;19.10;;;8.20;99.90;;;;;;5120381;27;20886;-67
2023/04/15 05:10:27;;;;;;;30.98;17.52;;;8.20;99.90;;;;;;5124021;27;20037;-68
2023/04/15 05:12:52;;;;;;;24.98;17.38;;;8.20;99.90;;;;;;5129448;27;20035;-68
2023/04/15 05:15:18;;;;;;;36.13;17.63;;;8.20;99.90;;;;;;5123510;27;20027;-69
2023/04/15 05:17:44;;;;;;;23.05;16.15;;;8.20;99.90;;;;;;5127895;27;20034;-68
2023/04/15 05:20:10;;;;;;;26.85;17.25;;;8.20;99.90;;;;;;5129347;27;20409;-68
2023/04/15 05:22:36;;;;;;;29.70;18.02;;;8.20;99.90;;;;;;5119414;27;20608;-68
2023/04/15 05:25:02;;;;;;;27.08;17.80;;;8.20;99.90;;;;;;5122205;27;20780;-68
2023/04/15 05:27:28;;;;;;;25.50;18.02;;;8.20;99.90;;;;;;5122596;27;20019;-68
2023/04/15 05:29:53;;;;;;;27.42;18.58;;;8.20;99.90;;;;;;5126505;27;20023;-68
2023/04/15 05:32:19;;;;;;;25.55;17.33;;;8.20;99.90;;;;;;5119709;27;20046;-68
2023/04/15 05:34:45;;;;;;;24.13;16.92;;;8.20;99.90;;;;;;5122525;27;20110;-68
2023/04/15 05:37:10;;;;;;;30.17;17.58;;;8.10;99.90;;;;;;5120103;27;20015;-68
2023/04/15 05:39:36;;;;;;;25.40;16.13;;;8.10;99.90;;;;;;5122212;27;20031;-68
2023/04/15 05:42:02;;;;;;;26.35;17.42;;;8.10;99.90;;;;;;5123143;27;20024;-68
2023/04/15 05:44:28;;;;;;;24.35;17.75;;;8.00;99.90;;;;;;5122047;27;20035;-68
2023/04/15 05:46:53;;;;;;;29.58;17.05;;;8.00;99.90;;;;;;5123912;27;20153;-68
2023/04/15 05:49:19;;;;;;;27.15;17.23;;;8.00;99.90;;;;;;5122014;27;20378;-67
2023/04/15 05:51:46;;;;;;;29.13;17.45;;;8.00;99.90;;;;;;5124783;27;20116;-68
2023/04/15 05:54:12;;;;;;;26.38;15.95;;;8.00;99.90;;;;;;5122070;27;20031;-69
2023/04/15 05:56:38;;;;;;;26.52;17.60;;;7.90;99.90;;;;;;5125988;27;20501;-68
2023/04/15 05:59:03;;;;;;;22.48;16.52;;;7.90;99.90;;;;;;5122204;27;20031;-68
2023/04/15 06:01:29;;;;;;;22.98;15.55;;;8.00;99.90;;;;;;5128609;27;20027;-68
2023/04/15 06:03:55;;;;;;;21.60;15.52;;;8.00;99.90;;;;;;5129264;27;20026;-67
2023/04/15 06:06:21;;;;;;;27.33;16.67;;;8.10;99.90;;;;;;5119678;27;20024;-68
2023/04/15 06:08:46;;;;;;;26.15;16.05;;;8.00;99.90;;;;;;5117084;27;20028;-68
2023/04/15 06:11:12;;;;;;;25.65;16.30;;;8.10;99.90;;;;;;5136185;27;20034;-68
2023/04/15 06:13:38;;;;;;;27.02;16.92;;;8.20;99.90;;;;;;5135944;27;20038;-69
2023/04/15 06:16:03;;;;;;;27.73;15.95;;;8.20;99.90;;;;;;5136460;27;20382;-68
2023/04/15 06:18:29;;;;;;;29.90;18.15;;;8.30;99.90;;;;;;5136265;27;20027;-68
2023/04/15 06:20:55;;;;;;;27.70;17.40;;;8.40;99.90;;;;;;5135444;27;20475;-69
2023/04/15 06:23:20;;;;;;;22.33;14.68;;;8.40;99.90;;;;;;5135102;27;20456;-68
2023/04/15 06:25:46;;;;;;;24.52;14.70;;;8.50;99.90;;;;;;5135981;27;20031;-68
2023/04/15 06:28:12;;;;;;;25.73;16.17;;;8.60;99.90;;;;;;5136206;27;20054;-69
2023/04/15 06:30:38;;;;;;;24.27;15.68;;;8.70;99.90;;;;;;5135420;27;20019;-69
2023/04/15 06:33:05;;;;;;;24.85;15.27;;;8.80;99.90;;;;;;5135657;27;20030;-68
2023/04/15 06:35:31;;;;;;;21.95;16.25;;;8.80;99.90;;;;;;5134169;27;20042;-69
2023/04/15 06:37:56;;;;;;;19.77;14.50;;;8.80;99.90;;;;;;5118041;27;20027;-70
2023/04/15 06:40:22;;;;;;;22.63;14.63;;;8.80;99.90;;;;;;5131221;27;20035;-69
2023/04/15 06:42:48;;;;;;;26.77;15.65;;;9.00;99.90;;;;;;5134736;27;20106;-68
2023/04/15 06:45:13;;;;;;;26.08;15.95;;;9.10;99.90;;;;;;5135828;27;20024;-69
2023/04/15 06:47:40;;;;;;;22.77;15.45;;;9.20;99.90;;;;;;5120662;27;20039;-68
2023/04/15 06:50:06;;;;;;;24.15;15.90;;;9.30;99.90;;;;;;5134112;27;20026;-68
2023/04/15 06:52:32;;;;;;;21.95;16.05;;;9.30;99.90;;;;;;5120928;27;20383;-68
2023/04/15 06:54:58;;;;;;;22.40;15.10;;;9.40;99.90;;;;;;5122549;27;20015;-69
2023/04/15 06:57:24;;;;;;;23.30;15.13;;;9.40;99.90;;;;;;5135404;27;20034;-69
2023/04/15 06:59:51;;;;;;;22.27;14.45;;;9.40;99.90;;;;;;5135483;27;20015;-69
2023/04/15 07:02:17;;;;;;;18.77;13.25;;;9.40;99.90;;;;;;5123199;27;20037;-68
2023/04/15 07:04:43;;;;;;;22.50;14.77;;;9.50;99.90;;;;;;5126104;27;20374;-69
2023/04/15 07:07:08;;;;;;;21.95;14.05;;;9.50;99.90;;;;;;5134569;27;20088;-69
2023/04/15 07:09:34;;;;;;;19.77;13.77;;;9.60;99.90;;;;;;5133919;27;20031;-69
2023/04/15 07:12:00;;;;;;;28.30;14.88;;;9.60;99.90;;;;;;5134376;27;20062;-69
2023/04/15 07:14:25;;;;;;;20.10;14.50;;;9.70;99.90;;;;;;5135455;27;20424;-69
2023/04/15 07:16:51;;;;;;;22.60;16.25;;;9.70;99.90;;;;;;5135062;27;20034;-68
2023/04/15 07:19:16;;;;;;;22.90;15.65;;;9.80;99.90;;;;;;5135402;27;20049;-69
2023/04/15 07:21:42;;;;;;;19.95;14.93;;;10.00;99.90;;;;;;5135356;27;20069;-69
2023/04/15 07:24:09;;;;;;;24.65;15.35;;;10.10;99.90;;;;;;5134374;27;20019;-69
2023/04/15 07:26:34;;;;;;;18.92;13.27;;;10.20;99.90;;;;;;5132306;27;20023;-68
2023/04/15 07:29:00;;;;;;;21.42;14.38;;;10.20;99.90;;;;;;5113993;28;20028;-70
2023/04/15 07:31:26;;;;;;;19.33;12.73;;;10.20;99.90;;;;;;5122995;27;20075;-69
2023/04/15 07:33:52;;;;;;;18.73;12.75;;;10.20;99.90;;;;;;5134717;27;20031;-69
2023/04/15 07:36:17;;;;;;;18.45;13.68;;;10.30;99.90;;;;;;5132881;27;20023;-68
2023/04/15 07:38:43;;;;;;;20.98;13.75;;;10.40;99.90;;;;;;5134943;27;20030;-69
2023/04/15 07:41:09;;;;;;;18.23;11.98;;;10.60;99.90;;;;;;5133109;27;20079;-69
2023/04/15 07:43:35;;;;;;;16.33;11.57;;;10.70;99.90;;;;;;5134769;27;20023;-69
2023/04/15 07:46:00;;;;;;;17.30;12.23;;;10.70;99.90;;;;;;5134568;27;20075;-68
2023/04/15 07:48:26;;;;;;;15.43;12.10;;;10.80;99.90;;;;;;5134656;27;20395;-70
2023/04/15 07:50:52;;;;;;;16.45;11.40;;;10.80;99.90;;;;;;5134111;27;20045;-68
2023/04/15 07:53:18;;;;;;;15.52;12.90;;;11.00;99.90;;;;;;5133689;27;20027;-69
2023/04/15 07:55:44;;;;;;;13.82;10.88;;;11.20;99.90;;;;;;5134518;27;20029;-69
2023/04/15 07:58:10;;;;;;;14.93;11.10;;;11.50;99.90;;;;;;5134477;27;20023;-69
2023/04/15 08:00:37;;;;;;;15.52;11.48;;;11.70;99.90;;;;;;5134441;27;20031;-69
2023/04/15 08:03:02;;;;;;;12.30;10.38;;;11.80;99.90;;;;;;5131994;27;20054;-70
2023/04/15 08:05:28;;;;;;;12.57;10.05;;;12.00;99.90;;;;;;5132771;27;20061;-69
2023/04/15 08:07:54;;;;;;;11.48;9.77;;;12.10;99.90;;;;;;5133726;27;20039;-70
2023/04/15 08:10:20;;;;;;;11.82;9.95;;;12.30;99.90;;;;;;5133426;27;20023;-69
2023/04/15 08:12:48;;;;;;;14.38;10.48;;;12.40;99.90;;;;;;5134216;27;20039;-70
2023/04/15 08:15:14;;;;;;;11.18;8.85;;;12.50;99.90;;;;;;5113821;28;20062;-70
2023/04/15 08:17:41;;;;;;;11.25;9.30;;;12.40;99.90;;;;;;5112477;28;20092;-69
2023/04/15 08:20:06;;;;;;;11.95;8.98;;;12.40;99.90;;;;;;5113452;28;20024;-70
2023/04/15 08:22:33;;;;;;;12.35;8.55;;;12.50;99.90;;;;;;5129948;27;20031;-69
2023/04/15 08:24:59;;;;;;;12.65;8.40;;;12.70;99.90;;;;;;5134137;27;20492;-70
2023/04/15 08:27:24;;;;;;;11.95;8.65;;;12.90;99.90;;;;;;5133706;27;20027;-70
2023/04/15 08:29:50;;;;;;;12.20;7.90;;;12.90;99.90;;;;;;5132069;27;20540;-69
2023/04/15 08:32:15;;;;;;;9.98;7.78;;;13.00;99.90;;;;;;5133489;27;20060;-69
2023/04/15 08:34:41;;;;;;;10.40;7.38;;;13.10;99.90;;;;;;5132466;27;20096;-70
2023/04/15 08:37:07;;;;;;;9.00;6.70;;;13.10;99.90;;;;;;5131876;27;20114;-69
2023/04/15 08:39:32;;;;;;;7.70;6.93;;;13.20;99.90;;;;;;5132430;27;20019;-70
2023/04/15 08:42:04;;;;;;;8.52;6.30;;;13.20;99.90;;;;;;5121361;27;20030;-70
2023/04/15 08:44:33;;;;;;;8.63;6.60;;;13.40;99.90;;;;;;5127526;27;20071;-70
2023/04/15 08:47:06;;;;;;;10.52;7.22;;;13.60;99.90;;;;;;5132168;27;20030;-70
2023/04/15 08:49:31;;;;;;;;;;;13.80;99.90;;;;;;5131610;27;20023;-70
2023/04/15 08:51:58;;;;;;;12.45;7.75;;;13.90;99.90;;;;;;5132820;27;20513;-70
2023/04/15 08:54:25;;;;;;;11.48;7.97;;;14.00;99.90;;;;;;5133376;27;20067;-70
2023/04/15 08:56:52;;;;;;;9.75;8.13;;;14.00;99.90;;;;;;5132629;27;20011;-70
2023/04/15 08:59:20;;;;;;;9.90;7.07;;;14.00;99.90;;;;;;5133370;27;20033;-69
2023/04/15 09:01:47;;;;;;;10.75;7.30;;;14.20;99.90;;;;;;5131669;27;20011;-70
2023/04/15 09:04:13;;;;;;;11.68;7.55;;;14.10;99.90;;;;;;5132400;27;20027;-70
2023/04/15 09:06:40;;;;;;;9.40;6.38;;;14.00;99.90;;;;;;5128400;28;20364;-71
2023/04/15 09:09:06;;;;;;;9.07;6.20;;;14.30;99.90;;;;;;5132470;27;20432;-70
2023/04/15 09:11:31;;;;;;;7.47;5.03;;;14.50;99.90;;;;;;5130348;28;20052;-71
2023/04/15 09:13:57;;;;;;;6.63;5.53;;;14.70;99.90;;;;;;5132830;27;20045;-70
2023/04/15 09:16:23;;;;;;;7.38;5.30;;;14.60;99.90;;;;;;5132660;28;20023;-70
2023/04/15 09:18:48;;;;;;;5.70;5.07;;;14.70;99.90;;;;;;5131963;27;20019;-71
2023/04/15 09:21:16;;;;;;;6.50;5.47;;;14.70;99.90;;;;;;5131144;28;20376;-72
2023/04/15 09:23:57;;;;;;;7.97;5.28;;;14.70;99.90;;;;;;5132878;27;20801;-70
2023/04/15 09:26:36;;;;;;;6.82;4.85;;;14.80;99.90;;;;;;5130195;27;20111;-71
2023/04/15 09:29:06;;;;;;;6.40;4.47;;;14.90;99.90;;;;;;5132008;27;20032;-71
2023/04/15 09:31:32;;;;;;;6.95;4.60;;;15.00;99.90;;;;;;5130857;27;20019;-70
2023/04/15 09:33:58;;;;;;;4.90;4.07;;;15.10;99.90;;;;;;5145143;27;20027;-72
2023/04/15 09:36:24;;;;;;;7.05;4.72;;;15.10;99.90;;;;;;5136232;27;20029;-71
2023/04/15 09:38:59;;;;;;;5.05;4.53;;;15.10;99.90;;;;;;5135127;27;20516;-71
2023/04/15 09:41:26;;;;;;;7.70;4.55;;;15.10;99.90;;;;;;5131620;27;20469;-71
2023/04/15 09:43:52;;;;;;;5.68;4.05;;;15.10;99.90;;;;;;5123857;27;20027;-71
2023/04/15 09:46:18;;;;;;;6.30;4.60;;;15.10;99.90;;;;;;5135842;27;20421;-70
2023/04/15 09:48:43;;;;;;;6.85;4.57;;;15.10;99.90;;;;;;5112062;27;20031;-70
2023/04/15 09:51:09;;;;;;;5.82;4.20;;;15.20;99.90;;;;;;5115565;27;20027;-70
2023/04/15 09:53:37;;;;;;;7.20;4.18;;;15.40;99.90;;;;;;5117971;27;20031;-71
2023/04/15 09:56:06;;;;;;;5.20;4.25;;;15.50;99.90;;;;;;5118010;27;20016;-70
2023/04/15 09:58:42;;;;;;;4.63;4.20;;;15.80;99.90;;;;;;5120243;27;20035;-69
2023/04/15 10:01:10;;;;;;;8.15;4.57;;;15.80;99.90;;;;;;5117239;27;20039;-70
2023/04/15 10:03:36;;;;;;;5.88;4.35;;;16.00;99.90;;;;;;5117501;27;20027;-70
2023/04/15 10:06:02;;;;;;;4.75;3.92;;;15.80;99.90;;;;;;5117181;27;20027;-69
2023/04/15 10:08:31;;;;;;;11.00;3.97;;;15.80;99.90;;;;;;5117262;27;20079;-70
2023/04/15 10:10:58;;;;;;;4.75;3.55;;;16.00;99.90;;;;;;5118880;27;20551;-70
2023/04/15 10:13:27;;;;;;;6.75;3.83;;;16.10;99.90;;;;;;5116742;27;20496;-69
2023/04/15 10:16:15;;;;;;;6.07;4.30;;;16.00;99.90;;;;;;5119444;27;20096;-70
2023/04/15 10:18:46;;;;;;;5.90;3.78;;;16.00;99.90;;;;;;5114816;27;20028;-69
2023/04/15 10:21:17;;;;;;;3.85;3.45;;;16.00;99.90;;;;;;5116892;27;20557;-70
2023/04/15 10:23:44;;;;;;;4.38;3.13;;;15.80;99.90;;;;;;5117234;27;20536;-70
2023/04/15 10:26:19;;;;;;;3.20;2.80;;;15.70;99.90;;;;;;5114549;27;20032;-70
2023/04/15 10:28:48;;;;;;;5.90;3.25;;;16.10;99.90;;;;;;5119251;27;20027;-70
2023/04/15 10:31:15;;;;;;;3.05;2.25;;;16.40;99.90;;;;;;5121019;27;20028;-70
2023/04/15 10:33:43;;;;;;;4.68;2.38;;;16.50;99.90;;;;;;5120081;27;20023;-69
2023/04/15 10:36:09;;;;;;;4.05;3.00;;;16.60;99.90;;;;;;5121625;27;20019;-69
2023/04/15 10:38:45;;;;;;;3.15;2.63;;;16.90;99.90;;;;;;5117080;27;20063;-69
2023/04/15 10:41:23;;;;;;;2.67;2.47;;;16.80;99.90;;;;;;5115160;27;20015;-70
2023/04/15 10:43:50;;;;;;;3.17;2.63;;;17.10;99.90;;;;;;5116873;27;20039;-70
2023/04/15 10:46:22;;;;;;;3.88;2.67;;;17.00;99.90;;;;;;5116571;27;22735;-69
2023/04/15 10:48:50;;;;;;;8.00;2.97;;;17.20;99.90;;;;;;5116845;27;20016;-70
2023/04/15 10:51:16;;;;;;;3.85;2.83;;;17.30;99.90;;;;;;5117275;27;20027;-70
2023/04/15 10:53:42;;;;;;;3.42;2.42;;;17.20;99.90;;;;;;5113837;27;20785;-69
2023/04/15 10:56:09;;;;;;;2.22;1.85;;;17.40;99.90;;;;;;5113432;27;20032;-70
2023/04/15 10:58:42;;;;;;;2.65;2.45;;;17.30;99.90;;;;;;5115184;27;20025;-70
2023/04/15 11:01:07;;;;;;;3.38;2.88;;;17.20;99.90;;;;;;5114653;27;20027;-69
2023/04/15 11:03:38;;;;;;;3.45;3.15;;;17.20;99.90;;;;;;5122370;27;20068;-70
2023/04/15 11:06:05;;;;;;;3.78;3.05;;;17.50;99.90;;;;;;5119390;27;21376;-70
2023/04/15 11:08:53;;;;;;;4.85;2.95;;;17.30;99.90;;;;;;5114314;27;20028;-70
2023/04/15 11:11:19;;;;;;;4.97;3.30;;;17.60;99.90;;;;;;5116599;27;20447;-71
2023/04/15 11:13:49;;;;;;;6.35;2.63;;;17.30;99.90;;;;;;5115501;27;20027;-70
2023/04/15 11:16:15;;;;;;;4.75;2.97;;;17.40;99.90;;;;;;5114912;27;20034;-70
2023/04/15 11:18:52;;;;;;;3.65;2.92;;;17.50;99.90;;;;;;5120167;27;20024;-70
2023/04/15 11:21:17;;;;;;;5.72;4.10;;;17.60;99.90;;;;;;5115522;27;20024;-70
2023/04/15 11:23:45;;;;;;;4.80;3.05;;;17.70;99.90;;;;;;5113650;27;20041;-70
2023/04/15 11:26:12;;;;;;;4.20;3.80;;;17.80;99.90;;;;;;5114360;27;20082;-70
2023/04/15 11:28:42;;;;;;;4.95;3.13;;;17.90;99.90;;;;;;5117147;27;20104;-70
2023/04/15 11:31:13;;;;;;;4.03;2.92;;;18.00;99.90;;;;;;5114886;27;20035;-70
2023/04/15 11:33:45;;;;;;;3.58;3.03;;;18.20;99.90;;;;;;5116694;27;20023;-69
2023/04/15 11:36:11;;;;;;;6.03;3.13;;;18.40;99.90;;;;;;5113876;27;20026;-70
2023/04/15 11:38:41;;;;;;;5.15;2.22;;;18.50;99.90;;;;;;5117917;27;20027;-70
2023/04/15 11:41:06;;;;;;;2.38;1.85;;;18.40;99.90;;;;;;5114729;27;20074;-70
2023/04/15 11:43:34;;;;;;;2.25;1.80;;;18.50;99.90;;;;;;5114872;27;20491;-69
2023/04/15 11:46:01;;;;;;;2.60;2.38;;;18.50;99.90;;;;;;5112246;27;20221;-70
2023/04/15 11:48:29;;;;;;;2.92;2.10;;;18.50;99.90;;;;;;5118681;27;20039;-70
2023/04/15 11:51:05;;;;;;;2.10;1.90;;;18.60;99.90;;;;;;5117601;27;20050;-70
2023/04/15 11:53:40;;;;;;;7.15;1.98;;;18.70;99.90;;;;;;5113868;27;20025;-69
2023/04/15 11:56:08;;;;;;;1.63;1.52;;;18.80;99.90;;;;;;5112965;27;20028;-71
2023/04/15 11:58:38;;;;;;;2.08;1.40;;;18.80;99.90;;;;;;5114503;27;20027;-71
2023/04/15 12:01:05;;;;;;;1.35;1.25;;;18.80;99.90;;;;;;5117021;27;20023;-69
2023/04/15 12:03:47;;;;;;;2.10;1.60;;;18.80;99.90;;;;;;5113785;27;20052;-70
2023/04/15 12:06:19;;;;;;;1.73;1.60;;;18.70;99.90;;;;;;5114233;27;20467;-70
2023/04/15 12:08:51;;;;;;;1.15;1.05;;;18.70;99.90;;;;;;5113833;27;20023;-71
2023/04/15 12:11:26;;;;;;;;;;;18.50;99.90;;;;;;5112738;27;20019;-70
2023/04/15 12:13:56;;;;;;;2.25;1.60;;;18.70;99.90;;;;;;5115614;27;19920;-71
2023/04/15 12:16:23;;;;;;;2.05;1.95;;;18.70;99.90;;;;;;5114431;27;20073;-70
2023/04/15 12:18:54;;;;;;;1.92;1.80;;;18.70;99.90;;;;;;5112012;27;20091;-70
2023/04/15 12:21:22;;;;;;;4.00;2.40;;;18.60;99.90;;;;;;5112430;27;20471;-70
2023/04/15 12:23:51;;;;;;;2.03;1.83;;;18.70;99.90;;;;;;5110969;27;20269;-70
2023/04/15 12:26:24;;;;;;;3.47;2.50;;;18.80;99.90;;;;;;5114431;27;20023;-70
2023/04/15 12:28:54;;;;;;;2.85;2.65;;;18.80;99.90;;;;;;5112993;27;20034;-70
2023/04/15 12:31:20;;;;;;;8.50;3.03;;;18.90;99.90;;;;;;5110651;27;21470;-69
2023/04/15 12:33:48;;;;;;;3.00;2.70;;;19.10;99.90;;;;;;5114620;27;20031;-69
2023/04/15 12:36:13;;;;;;;2.70;2.45;;;18.90;99.90;;;;;;5117458;27;20015;-70
2023/04/15 12:38:39;;;;;;;3.58;2.50;;;18.90;99.90;;;;;;5115096;27;20106;-70
2023/04/15 12:41:05;;;;;;;3.83;2.47;;;18.90;99.90;;;;;;5118492;27;20022;-69